Time;durP1;ratioP1;P1;durP2;ratioP2;P2;SDS_P1;SDS_P2;PMS_P1;PMS_P2;Temp;Humidity;BMP_temperature;BMP_pressure;BME280_temperature;BME280_humidity;BME280_pressure;Samples;Min_cycle;Max_cycle;Signal;HPM_P1;HPM_P2
2023/09/19 00:02:23;;;;;;;;;;;;;;;18.91;61.32;99877.91;4981452;28;7284;-73
2023/09/19 00:04:49;;;;;;;;;;;;;;;18.93;61.86;99873.59;4984355;28;6827;-74
2023/09/19 00:07:16;;;;;;;;;;;;;;;18.97;61.92;99876.19;4964794;28;7168;-73
2023/09/19 00:09:43;;;;;;;;;;;;;;;19.00;61.81;99886.63;4974151;28;7040;-74
2023/09/19 00:12:09;;;;;;;;;;;;;;;19.03;61.78;99885.78;4982080;28;7212;-73
2023/09/19 00:14:35;;;;;;;;;;;;;;;19.03;61.20;99875.41;4979541;28;6984;-73
2023/09/19 00:17:08;;;;;;;;;;;;;;;19.04;61.46;99890.13;4984856;28;6812;-73
2023/09/19 00:19:37;;;;;;;;;;;;;;;19.05;61.64;99881.47;5000279;28;6866;-73
2023/09/19 00:22:04;;;;;;;;;;;;;;;19.07;61.28;99887.53;4982554;28;7275;-73
2023/09/19 00:24:30;;;;;;;;;;;;;;;19.10;61.56;99890.16;4984890;28;6804;-73
2023/09/19 00:26:56;;;;;;;;;;;;;;;19.16;61.50;99899.69;4997701;28;7704;-73
2023/09/19 00:29:23;;;;;;;;;;;;;;;19.18;61.05;99895.38;4974664;28;6962;-73
2023/09/19 00:31:48;;;;;;;;;;;;;;;19.21;61.37;99905.78;4983457;28;6812;-73
2023/09/19 00:34:14;;;;;;;;;;;;;;;19.25;60.88;99902.34;4984892;28;6856;-73
2023/09/19 00:36:40;;;;;;;;;;;;;;;19.25;60.94;99907.53;4959020;28;6877;-73
2023/09/19 00:39:06;;;;;;;;;;;;;;;19.29;60.68;99904.06;4998711;28;6863;-73
2023/09/19 00:41:38;;;;;;;;;;;;;;;19.32;61.36;99910.16;4982825;28;6792;-73
2023/09/19 00:44:04;;;;;;;;;;;;;;;19.32;60.74;99908.44;4978426;28;7125;-73
2023/09/19 00:46:32;;;;;;;;;;;;;;;19.30;60.69;99912.75;4981841;28;7115;-73
2023/09/19 00:48:58;;;;;;;;;;;;;;;19.26;60.88;99918.78;4982549;28;6812;-73
2023/09/19 00:51:25;;;;;;;;;;;;;;;19.18;60.13;99920.50;4999069;28;6983;-73
2023/09/19 00:53:52;;;;;;;;;;;;;;;19.12;60.57;99923.91;4967789;28;7337;-73
2023/09/19 00:56:18;;;;;;;;;;;;;;;19.05;60.36;99932.53;4979209;28;6981;-73
2023/09/19 00:58:47;;;;;;;;;;;;;;;18.99;60.72;99938.53;4985162;28;7063;-73
2023/09/19 01:01:14;;;;;;;;;;;;;;;18.93;60.25;99936.78;4982967;28;7219;-73
2023/09/19 01:03:41;;;;;;;;;;;;;;;18.87;60.88;99934.13;4983983;28;7007;-73
2023/09/19 01:06:07;;;;;;;;;;;;;;;18.83;60.52;99934.94;4962910;28;6993;-73
2023/09/19 01:08:35;;;;;;;;;;;;;;;18.81;60.60;99944.47;4982967;28;6812;-73
2023/09/19 01:11:20;;;;;;;;;;;;;;;18.78;60.58;99942.72;4963207;28;8557;-73
2023/09/19 01:13:57;;;;;;;;;;;;;;;18.78;60.96;99945.31;4981350;28;6816;-73
2023/09/19 01:16:39;;;;;;;;;;;;;;;18.76;60.92;99944.44;4964542;28;7177;-73
2023/09/19 01:19:23;;;;;;;;;;;;;;;18.76;61.00;99949.63;4982382;28;6815;-73
2023/09/19 01:22:00;;;;;;;;;;;;;;;18.74;60.41;99946.16;4984753;28;7008;-73
2023/09/19 01:25:03;;;;;;;;;;;;;;;18.71;60.29;99952.19;4981738;28;6811;-73
2023/09/19 01:28:07;;;;;;;;;;;;;;;18.70;60.88;99955.66;4982316;28;7130;-73
2023/09/19 01:30:39;;;;;;;;;;;;;;;18.70;60.68;99967.78;4956069;28;6832;-73
2023/09/19 01:33:06;;;;;;;;;;;;;;;18.70;60.17;99960.84;4967241;28;7277;-73
2023/09/19 01:35:34;;;;;;;;;;;;;;;18.70;60.81;99962.59;4981082;28;6808;-73
2023/09/19 01:37:59;;;;;;;;;;;;;;;18.68;60.66;99962.56;4981133;28;7006;-73
2023/09/19 01:40:25;;;;;;;;;;;;;;;18.65;59.92;99966.84;4981187;28;6940;-73
2023/09/19 01:43:05;;;;;;;;;;;;;;;18.63;60.08;99968.56;4982050;28;6800;-73
2023/09/19 01:45:59;;;;;;;;;;;;;;;18.58;60.38;99981.50;4982746;28;6820;-73
2023/09/19 01:48:25;;;;;;;;;;;;;;;18.55;60.14;99987.53;4982491;28;6824;-74
2023/09/19 01:51:06;;;;;;;;;;;;;;;18.52;60.06;99981.44;4983261;28;6991;-73
2023/09/19 01:54:02;;;;;;;;;;;;;;;18.49;59.86;99992.66;4996728;28;6852;-73
2023/09/19 01:56:34;;;;;;;;;;;;;;;18.44;60.73;99989.19;4965466;28;7004;-74
2023/09/19 01:59:06;;;;;;;;;;;;;;;18.43;60.54;99996.06;4979698;28;7010;-74
2023/09/19 02:01:33;;;;;;;;;;;;;;;18.41;60.54;99989.16;4978964;28;7346;-73
2023/09/19 02:03:58;;;;;;;;;;;;;;;18.40;60.17;99992.59;4982357;28;6812;-73
2023/09/19 02:06:26;;;;;;;;;;;;;;;18.38;60.62;99992.59;4973666;28;6945;-73
2023/09/19 02:08:54;;;;;;;;;;;;;;;18.36;60.24;99996.91;4981813;28;7026;-73
2023/09/19 02:11:19;;;;;;;;;;;;;;;18.32;60.66;99996.00;4980937;28;6812;-73
2023/09/19 02:13:45;;;;;;;;;;;;;;;18.31;60.34;100004.63;4980427;28;7083;-73
2023/09/19 02:16:12;;;;;;;;;;;;;;;18.28;59.90;99993.34;4974587;28;6860;-73
2023/09/19 02:18:39;;;;;;;;;;;;;;;18.27;60.92;99996.81;4979442;28;6799;-74
2023/09/19 02:21:06;;;;;;;;;;;;;;;18.25;60.56;99996.78;4981815;28;7647;-73
2023/09/19 02:23:33;;;;;;;;;;;;;;;18.26;60.54;100000.25;4995852;28;7022;-74
2023/09/19 02:26:00;;;;;;;;;;;;;;;18.25;60.26;99998.50;4978638;28;7059;-74
2023/09/19 02:28:32;;;;;;;;;;;;;;;18.25;60.06;99999.38;4962915;28;6843;-73
2023/09/19 02:31:00;;;;;;;;;;;;;;;18.24;60.00;99996.75;4981953;28;7401;-74
2023/09/19 02:33:25;;;;;;;;;;;;;;;18.23;59.97;100000.19;4961314;28;7059;-74
2023/09/19 02:36:00;;;;;;;;;;;;;;;18.23;60.41;99998.50;4981785;28;7079;-74
2023/09/19 02:38:26;;;;;;;;;;;;;;;18.23;60.30;100000.19;4981707;28;6811;-72
2023/09/19 02:40:52;;;;;;;;;;;;;;;18.23;60.43;100003.69;4964954;28;8504;-72
2023/09/19 02:43:19;;;;;;;;;;;;;;;18.24;60.44;99988.97;4982253;28;6796;-72
2023/09/19 02:45:46;;;;;;;;;;;;;;;18.24;60.22;99999.34;4983851;28;6891;-72
2023/09/19 02:48:12;;;;;;;;;;;;;;;18.22;60.08;99994.16;4997481;28;6816;-73
2023/09/19 02:50:39;;;;;;;;;;;;;;;18.22;60.24;99993.28;4982581;28;6986;-73
2023/09/19 02:53:04;;;;;;;;;;;;;;;18.17;59.93;99988.94;4982208;28;7035;-72
2023/09/19 02:55:31;;;;;;;;;;;;;;;18.17;60.13;99998.41;4959238;28;7040;-72
2023/09/19 02:57:57;;;;;;;;;;;;;;;18.16;60.16;99992.38;4982594;28;6807;-72
2023/09/19 03:00:23;;;;;;;;;;;;;;;18.16;60.32;100000.16;4982248;28;7256;-73
2023/09/19 03:02:50;;;;;;;;;;;;;;;18.16;60.39;100005.34;4983947;28;6884;-72
2023/09/19 03:05:15;;;;;;;;;;;;;;;18.17;60.33;100004.50;4982239;28;6821;-72
2023/09/19 03:07:43;;;;;;;;;;;;;;;18.17;59.83;100001.91;4984700;28;6851;-72
2023/09/19 03:10:09;;;;;;;;;;;;;;;18.18;59.47;99998.44;4963551;28;7020;-73
2023/09/19 03:12:35;;;;;;;;;;;;;;;18.19;60.10;100004.50;4970689;28;6989;-72
2023/09/19 03:15:01;;;;;;;;;;;;;;;18.20;59.91;100006.22;4983080;28;6788;-72
2023/09/19 03:17:27;;;;;;;;;;;;;;;18.19;59.37;100004.50;4981525;28;6994;-72
2023/09/19 03:19:53;;;;;;;;;;;;;;;18.17;59.99;100012.28;4982436;28;7014;-73
2023/09/19 03:22:19;;;;;;;;;;;;;;;18.17;60.03;100004.50;4981802;28;7001;-73
2023/09/19 03:24:44;;;;;;;;;;;;;;;18.15;59.91;100002.72;4978699;28;6818;-73
2023/09/19 03:27:10;;;;;;;;;;;;;;;18.14;59.77;100001.84;4981500;28;6927;-74
2023/09/19 03:29:36;;;;;;;;;;;;;;;18.14;59.78;100004.44;4961669;28;7230;-72
2023/09/19 03:32:01;;;;;;;;;;;;;;;18.13;59.19;100012.22;4984859;28;7020;-72
2023/09/19 03:34:27;;;;;;;;;;;;;;;18.12;59.40;100018.25;4979800;28;6866;-72
2023/09/19 03:36:52;;;;;;;;;;;;;;;18.10;59.28;100014.75;4977692;28;7864;-73
2023/09/19 03:39:18;;;;;;;;;;;;;;;18.09;59.61;100008.72;4980029;28;6799;-73
2023/09/19 03:41:44;;;;;;;;;;;;;;;18.10;59.37;100010.47;4984955;28;6938;-74
2023/09/19 03:44:10;;;;;;;;;;;;;;;18.09;59.79;100007.84;4981126;28;6828;-74
2023/09/19 03:46:36;;;;;;;;;;;;;;;18.09;59.26;100007.84;4978849;28;6803;-74
2023/09/19 03:49:01;;;;;;;;;;;;;;;18.09;59.61;100006.13;4984890;28;7230;-74
2023/09/19 03:51:28;;;;;;;;;;;;;;;18.08;58.86;100012.16;4983268;28;7292;-74
2023/09/19 03:53:53;;;;;;;;;;;;;;;18.06;59.16;100011.28;4984118;28;6784;-74
2023/09/19 03:56:18;;;;;;;;;;;;;;;18.07;59.18;100010.44;4999226;28;7996;-74
2023/09/19 03:58:44;;;;;;;;;;;;;;;18.07;59.17;100017.34;4982696;28;6792;-74
2023/09/19 04:01:10;;;;;;;;;;;;;;;18.05;58.88;100014.72;4978794;28;7105;-74
2023/09/19 04:03:46;;;;;;;;;;;;;;;18.04;59.01;100010.38;4983164;28;6788;-74
2023/09/19 04:06:14;;;;;;;;;;;;;;;18.02;59.32;100014.66;4967831;28;7262;-74
2023/09/19 04:08:40;;;;;;;;;;;;;;;18.00;59.18;100001.66;4977517;28;7425;-74
2023/09/19 04:11:06;;;;;;;;;;;;;;;18.01;58.88;100007.72;4982914;28;6852;-74
2023/09/19 04:13:31;;;;;;;;;;;;;;;18.00;58.68;100000.81;4981473;28;7392;-74
2023/09/19 04:15:57;;;;;;;;;;;;;;;17.99;58.96;100004.25;4956325;28;6857;-74
2023/09/19 04:18:23;;;;;;;;;;;;;;;17.98;58.83;100008.56;4975926;28;7472;-74
2023/09/19 04:20:49;;;;;;;;;;;;;;;17.96;58.93;99997.31;4960130;28;7286;-74
2023/09/19 04:23:15;;;;;;;;;;;;;;;17.97;58.32;99993.84;4979055;28;7014;-74
2023/09/19 04:25:40;;;;;;;;;;;;;;;17.98;59.00;100002.53;4982617;28;6772;-74
2023/09/19 04:28:06;;;;;;;;;;;;;;;17.97;58.37;100004.22;4980094;28;6864;-74
2023/09/19 04:30:32;;;;;;;;;;;;;;;17.97;58.63;100003.38;4981728;28;7200;-74
2023/09/19 04:32:57;;;;;;;;;;;;;;;17.97;57.98;100009.41;4984195;28;6768;-74
2023/09/19 04:35:23;;;;;;;;;;;;;;;17.96;58.21;100001.59;4981646;28;7105;-74
2023/09/19 04:37:50;;;;;;;;;;;;;;;17.97;58.46;100013.75;4981813;28;6792;-74
2023/09/19 04:40:17;;;;;;;;;;;;;;;17.95;58.25;100013.72;4981360;28;6824;-74
2023/09/19 04:42:43;;;;;;;;;;;;;;;17.98;58.03;100018.06;4982611;28;6844;-74
2023/09/19 04:45:10;;;;;;;;;;;;;;;17.98;58.03;100020.66;4982845;28;6991;-73
2023/09/19 04:47:38;;;;;;;;;;;;;;;17.98;58.09;100021.53;4981863;28;7818;-74
2023/09/19 04:50:05;;;;;;;;;;;;;;;18.00;58.60;100026.75;4971506;28;7298;-74
2023/09/19 04:52:31;;;;;;;;;;;;;;;18.04;58.19;100031.13;4981179;28;7292;-75
2023/09/19 04:54:57;;;;;;;;;;;;;;;18.09;58.38;100033.78;4986054;28;6970;-75
2023/09/19 04:57:22;;;;;;;;;;;;;;;18.12;58.07;100032.09;4980507;28;7199;-74
2023/09/19 04:59:48;;;;;;;;;;;;;;;18.15;57.92;100026.06;4982954;28;6951;-74
2023/09/19 05:02:13;;;;;;;;;;;;;;;18.18;57.90;100032.16;4980746;28;7185;-74
2023/09/19 05:04:39;;;;;;;;;;;;;;;18.22;58.36;100040.84;4963861;28;7193;-74
2023/09/19 05:07:04;;;;;;;;;;;;;;;18.23;58.23;100039.09;4981013;28;6997;-74
2023/09/19 05:09:30;;;;;;;;;;;;;;;18.24;57.45;100043.44;4988854;28;7133;-74
2023/09/19 05:11:56;;;;;;;;;;;;;;;18.22;57.64;100034.78;4966094;28;6998;-74
2023/09/19 05:14:22;;;;;;;;;;;;;;;18.20;57.29;100046.88;4982287;28;6804;-74
2023/09/19 05:16:48;;;;;;;;;;;;;;;18.18;57.69;100050.31;4980453;28;7180;-74
2023/09/19 05:19:13;;;;;;;;;;;;;;;18.16;57.33;100046.84;4993586;28;7211;-74
2023/09/19 05:21:39;;;;;;;;;;;;;;;18.11;57.40;100053.69;4961881;28;7016;-74
2023/09/19 05:24:07;;;;;;;;;;;;;;;18.10;57.50;100049.34;4982227;28;6796;-75
2023/09/19 05:26:33;;;;;;;;;;;;;;;18.04;57.40;100057.94;4965398;28;7253;-74
2023/09/19 05:28:58;;;;;;;;;;;;;;;18.03;57.84;100063.06;4981655;28;7164;-74
2023/09/19 05:31:25;;;;;;;;;;;;;;;18.00;57.95;100063.03;4963725;28;6993;-74
2023/09/19 05:33:53;;;;;;;;;;;;;;;17.99;58.00;100079.44;4978031;28;7036;-74
2023/09/19 05:36:18;;;;;;;;;;;;;;;17.96;57.82;100080.28;4981952;28;7084;-74
2023/09/19 05:38:44;;;;;;;;;;;;;;;17.97;57.97;100087.19;4981333;28;7212;-74
2023/09/19 05:41:13;;;;;;;;;;;;;;;17.96;58.00;100084.56;4983177;28;7288;-74
2023/09/19 05:43:40;;;;;;;;;;;;;;;17.97;57.76;100091.53;4982610;28;6830;-74
2023/09/19 05:46:07;;;;;;;;;;;;;;;17.95;57.95;100094.09;4983527;28;6819;-74
2023/09/19 05:48:33;;;;;;;;;;;;;;;17.96;58.42;100105.31;4982954;28;6813;-74
2023/09/19 05:50:59;;;;;;;;;;;;;;;17.96;58.51;100100.13;4983037;28;6804;-74
2023/09/19 05:53:25;;;;;;;;;;;;;;;17.96;58.48;100108.78;4974864;28;7009;-74
2023/09/19 05:55:53;;;;;;;;;;;;;;;17.97;58.97;100114.88;4963518;28;8135;-74
2023/09/19 05:58:19;;;;;;;;;;;;;;;17.99;58.19;100115.75;4969990;28;7642;-74
2023/09/19 06:00:48;;;;;;;;;;;;;;;18.01;58.80;100119.22;4968637;28;7039;-75
2023/09/19 06:03:14;;;;;;;;;;;;;;;18.02;58.26;100115.78;4974506;28;7110;-74
2023/09/19 06:05:41;;;;;;;;;;;;;;;18.04;58.37;100122.75;4955498;28;7012;-74
2023/09/19 06:08:07;;;;;;;;;;;;;;;18.08;58.50;100123.69;4992493;28;7889;-75
2023/09/19 06:10:36;;;;;;;;;;;;;;;18.11;58.57;100118.53;4979568;28;6946;-75
2023/09/19 06:13:04;;;;;;;;;;;;;;;18.13;58.74;100116.81;4980719;28;6991;-75
2023/09/19 06:15:32;;;;;;;;;;;;;;;18.18;59.07;100114.28;4967708;28;7287;-75
2023/09/19 06:17:59;;;;;;;;;;;;;;;18.19;58.66;100116.00;4983462;28;7007;-75
2023/09/19 06:20:25;;;;;;;;;;;;;;;18.24;58.24;100121.25;4975545;28;7285;-74
2023/09/19 06:22:51;;;;;;;;;;;;;;;18.27;58.26;100110.94;4968117;28;6812;-75
2023/09/19 06:25:20;;;;;;;;;;;;;;;18.32;58.65;100109.25;4978735;28;7208;-75
2023/09/19 06:27:46;;;;;;;;;;;;;;;18.36;59.13;100116.22;4978135;28;7187;-75
2023/09/19 06:30:13;;;;;;;;;;;;;;;18.40;58.30;100112.81;4981469;28;6807;-75
2023/09/19 06:32:39;;;;;;;;;;;;;;;18.45;58.24;100108.56;4971363;28;7810;-75
2023/09/19 06:35:10;;;;;;;;;;;;;;;18.52;58.62;100106.88;4981257;28;6796;-74
2023/09/19 06:37:38;;;;;;;;;;;;;;;18.56;58.66;100108.66;4980431;28;7209;-74
2023/09/19 06:40:05;;;;;;;;;;;;;;;18.62;58.79;100102.66;4981832;28;6994;-75
2023/09/19 06:42:31;;;;;;;;;;;;;;;18.66;58.47;100109.63;4956679;28;7251;-74
2023/09/19 06:44:57;;;;;;;;;;;;;;;18.71;58.04;100096.69;4959710;28;8002;-75
2023/09/19 06:47:22;;;;;;;;;;;;;;;18.76;58.59;100094.16;4984377;28;7357;-74
2023/09/19 06:49:48;;;;;;;;;;;;;;;18.79;57.87;100109.75;4985475;28;6807;-75
2023/09/19 06:52:14;;;;;;;;;;;;;;;18.83;57.59;100114.09;4986327;28;7099;-75
2023/09/19 06:54:39;;;;;;;;;;;;;;;18.88;58.28;100113.31;4985172;28;6824;-75
2023/09/19 06:57:05;;;;;;;;;;;;;;;18.92;57.84;100110.72;4980346;28;7386;-75
2023/09/19 06:59:32;;;;;;;;;;;;;;;18.97;58.01;100112.50;4985082;28;7002;-75
2023/09/19 07:01:59;;;;;;;;;;;;;;;19.02;57.89;100112.59;4982219;28;6820;-75
2023/09/19 07:04:24;;;;;;;;;;;;;;;19.06;57.52;100116.06;4985630;28;6795;-74
2023/09/19 07:06:50;;;;;;;;;;;;;;;19.11;57.42;100114.38;5000607;28;8734;-75
2023/09/19 07:09:16;;;;;;;;;;;;;;;19.15;57.00;100119.59;4965310;28;7475;-75
2023/09/19 07:11:42;;;;;;;;;;;;;;;19.19;57.36;100120.50;4991138;28;7605;-75
2023/09/19 07:14:11;;;;;;;;;;;;;;;19.24;57.47;100121.44;4964340;28;7216;-75
2023/09/19 07:16:38;;;;;;;;;;;;;;;19.31;56.74;100130.13;4968969;28;7491;-75
2023/09/19 07:19:04;;;;;;;;;;;;;;;19.35;57.52;100133.63;4985317;28;6959;-75
2023/09/19 07:21:30;;;;;;;;;;;;;;;19.40;56.62;100135.41;4984086;28;7204;-75
2023/09/19 07:23:55;;;;;;;;;;;;;;;19.45;56.89;100145.81;4984144;28;6829;-75
2023/09/19 07:26:21;;;;;;;;;;;;;;;19.51;57.24;100145.88;4985679;28;6787;-75
2023/09/19 07:28:46;;;;;;;;;;;;;;;19.59;57.25;100145.03;4967811;28;6955;-75
2023/09/19 07:31:14;;;;;;;;;;;;;;;19.65;57.21;100143.38;4986230;28;6776;-74
2023/09/19 07:33:40;;;;;;;;;;;;;;;19.72;56.89;100144.28;4982993;28;7111;-75
2023/09/19 07:36:06;;;;;;;;;;;;;;;19.78;56.25;100146.91;4987873;28;6996;-75
2023/09/19 07:38:32;;;;;;;;;;;;;;;19.85;56.61;100145.22;4983463;28;6815;-75
2023/09/19 07:41:02;;;;;;;;;;;;;;;19.91;56.36;100149.59;4964101;28;6993;-75
2023/09/19 07:43:28;;;;;;;;;;;;;;;19.96;56.20;100143.59;4984917;28;6808;-75
2023/09/19 07:45:53;;;;;;;;;;;;;;;20.03;56.18;100141.88;4977480;28;6933;-75
2023/09/19 07:48:19;;;;;;;;;;;;;;;20.09;55.99;100144.53;4984759;28;6912;-75
2023/09/19 07:50:44;;;;;;;;;;;;;;;20.18;55.87;100151.47;4983405;28;7276;-75
2023/09/19 07:53:13;;;;;;;;;;;;;;;20.27;56.07;100132.41;4983605;28;6981;-75
2023/09/19 07:55:40;;;;;;;;;;;;;;;20.36;55.25;100119.44;4981502;28;7827;-74
2023/09/19 07:58:07;;;;;;;;;;;;;;;20.42;55.27;100135.97;4999580;28;7215;-75
2023/09/19 08:00:34;;;;;;;;;;;;;;;20.46;55.26;100124.69;4983565;28;7048;-75
2023/09/19 08:03:01;;;;;;;;;;;;;;;20.52;55.26;100129.91;4964494;28;7286;-74
2023/09/19 08:05:26;;;;;;;;;;;;;;;20.57;54.80;100133.41;4984830;28;7079;-75
2023/09/19 08:07:52;;;;;;;;;;;;;;;20.61;54.59;100129.94;4980002;28;6905;-74
2023/09/19 08:10:19;;;;;;;;;;;;;;;20.63;54.56;100132.56;4986349;28;6780;-74
2023/09/19 08:12:46;;;;;;;;;;;;;;;20.66;54.34;100132.53;4966042;28;8187;-74
2023/09/19 08:15:19;;;;;;;;;;;;;;;20.72;54.44;100132.56;4984716;28;6835;-74
2023/09/19 08:17:45;;;;;;;;;;;;;;;20.78;54.17;100129.97;4985275;28;6812;-74
2023/09/19 08:20:18;;;;;;;;;;;;;;;20.88;54.21;100135.22;4982635;28;6792;-74
2023/09/19 08:22:56;;;;;;;;;;;;;;;20.95;54.02;100135.22;4961026;28;7431;-74
2023/09/19 08:25:23;;;;;;;;;;;;;;;21.03;53.87;100132.63;4981009;28;6831;-73
2023/09/19 08:27:49;;;;;;;;;;;;;;;21.10;53.77;100130.91;4966774;28;7003;-74
2023/09/19 08:30:23;;;;;;;;;;;;;;;21.16;53.57;100132.63;4980280;28;9975;-74
2023/09/19 08:32:57;;;;;;;;;;;;;;;21.22;53.44;100143.91;4968183;28;7003;-74
2023/09/19 08:35:23;;;;;;;;;;;;;;;21.30;53.17;100141.31;4978407;28;8412;-74
2023/09/19 08:37:49;;;;;;;;;;;;;;;21.38;53.45;100141.31;4999347;28;7137;-73
2023/09/19 08:40:14;;;;;;;;;;;;;;;21.44;52.80;100141.31;4999631;28;8905;-74
2023/09/19 08:42:55;;;;;;;;;;;;;;;21.49;52.54;100146.53;4983073;28;6847;-74
2023/09/19 08:45:27;;;;;;;;;;;;;;;21.54;52.51;100147.38;4983388;28;6812;-74
2023/09/19 08:48:13;;;;;;;;;;;;;;;21.65;52.51;100143.00;4982923;28;6808;-74
2023/09/19 08:51:01;;;;;;;;;;;;;;;21.75;52.23;100130.84;4980652;28;6811;-74
2023/09/19 08:53:38;;;;;;;;;;;;;;;21.86;52.37;100141.25;4985099;28;6824;-74
2023/09/19 08:56:09;;;;;;;;;;;;;;;21.94;52.31;100138.63;4984960;28;7005;-74
2023/09/19 08:58:47;;;;;;;;;;;;;;;22.00;51.53;100143.81;4984979;28;7285;-74
2023/09/19 09:01:16;;;;;;;;;;;;;;;22.04;51.43;100148.16;4979824;28;7914;-74
2023/09/19 09:03:46;;;;;;;;;;;;;;;22.12;51.30;100144.66;4967842;28;7205;-74
2023/09/19 09:06:15;;;;;;;;;;;;;;;22.19;51.08;100142.03;4965127;28;7086;-74
2023/09/19 09:08:40;;;;;;;;;;;;;;;22.25;51.22;100154.16;4980684;28;6800;-74
2023/09/19 09:11:07;;;;;;;;;;;;;;;22.31;50.79;100153.28;4981341;28;6871;-74
2023/09/19 09:13:35;;;;;;;;;;;;;;;22.35;50.97;100144.53;4975666;28;6859;-74
2023/09/19 09:16:01;;;;;;;;;;;;;;;22.44;50.74;100133.19;4979186;28;7199;-74
2023/09/19 09:18:29;;;;;;;;;;;;;;;22.51;50.36;100134.06;4982470;28;6953;-74
2023/09/19 09:20:55;;;;;;;;;;;;;;;22.54;50.08;100134.91;4984214;28;7034;-74
2023/09/19 09:23:21;;;;;;;;;;;;;;;22.59;49.94;100133.13;4985661;28;6800;-74
2023/09/19 09:25:56;;;;;;;;;;;;;;;22.66;49.09;100133.09;4960778;28;6950;-74
2023/09/19 09:28:24;;;;;;;;;;;;;;;22.71;49.53;100139.19;4984772;28;6803;-75
2023/09/19 09:30:50;;;;;;;;;;;;;;;22.75;48.82;100136.53;4997710;28;7004;-74
2023/09/19 09:33:16;;;;;;;;;;;;;;;22.83;48.91;100131.25;4985766;28;6812;-74
2023/09/19 09:35:56;;;;;;;;;;;;;;;22.91;48.71;100130.34;4981711;28;6812;-74
2023/09/19 09:38:32;;;;;;;;;;;;;;;22.95;48.55;100116.34;4984763;28;6967;-74
2023/09/19 09:41:01;;;;;;;;;;;;;;;22.98;48.31;100124.16;4983848;28;6820;-74
2023/09/19 09:43:35;;;;;;;;;;;;;;;23.01;48.21;100129.38;4985259;28;6823;-74
2023/09/19 09:51:57;;;;;;;;;;;;;;;23.13;47.93;100133.63;4983905;28;6824;-74
2023/09/19 09:54:24;;;;;;;;;;;;;;;23.21;47.55;100138.81;5000396;28;6856;-75
2023/09/19 09:57:01;;;;;;;;;;;;;;;23.27;47.19;100139.63;4972769;28;7305;-75
2023/09/19 10:02:40;;;;;;;;;;;;;;;23.49;47.80;100135.97;4982494;28;6988;-74
2023/09/19 10:07:50;;;;;;;;;;;;;;;23.75;46.98;100126.97;4979532;28;6868;-75
2023/09/19 10:10:53;;;;;;;;;;;;;;;23.88;46.58;100115.50;4984182;28;7018;-75
2023/09/19 10:13:23;;;;;;;;;;;;;;;23.94;46.43;100123.25;4971088;28;7110;-74
2023/09/19 10:15:50;;;;;;;;;;;;;;;24.00;45.29;100123.19;4983902;28;7216;-74
2023/09/19 10:18:21;;;;;;;;;;;;;;;24.09;45.61;100106.53;4998131;28;6895;-74
2023/09/19 10:20:48;;;;;;;;;;;;;;;24.16;45.53;100102.09;4981660;28;6819;-74
2023/09/19 10:23:20;;;;;;;;;;;;;;;24.27;44.96;100105.44;4967714;28;7085;-74
2023/09/19 10:25:47;;;;;;;;;;;;;;;24.40;45.00;100100.91;4980668;28;6969;-74
2023/09/19 10:28:15;;;;;;;;;;;;;;;24.50;44.97;100108.63;4983283;28;7337;-74
2023/09/19 10:30:47;;;;;;;;;;;;;;;24.58;44.26;100113.75;4982031;28;7311;-74
2023/09/19 10:33:21;;;;;;;;;;;;;;;24.65;44.73;100115.41;4984412;28;6812;-74
2023/09/19 10:35:49;;;;;;;;;;;;;;;24.73;43.77;100103.06;4997991;28;7023;-74
2023/09/19 10:38:21;;;;;;;;;;;;;;;24.75;43.56;100110.88;4979964;28;7219;-74
2023/09/19 10:40:52;;;;;;;;;;;;;;;24.75;43.32;100111.75;4984622;28;6819;-74
2023/09/19 10:43:20;;;;;;;;;;;;;;;24.81;43.35;100111.66;4970107;28;7193;-73
2023/09/19 10:45:53;;;;;;;;;;;;;;;24.84;43.13;100109.91;4978767;28;7244;-74
2023/09/19 10:48:19;;;;;;;;;;;;;;;24.86;43.19;100108.97;4995413;28;6817;-73
2023/09/19 10:50:59;;;;;;;;;;;;;;;24.90;42.11;100104.56;4979315;28;6978;-74
2023/09/19 10:53:27;;;;;;;;;;;;;;;25.00;41.91;100116.63;4998369;28;7001;-74
2023/09/19 10:55:59;;;;;;;;;;;;;;;25.14;41.77;100105.06;4983141;28;6816;-74
2023/09/19 10:58:30;;;;;;;;;;;;;;;25.25;41.82;100105.72;4966390;28;7285;-73
2023/09/19 11:01:05;;;;;;;;;;;;;;;25.35;41.19;100111.66;4997984;28;6990;-74
2023/09/19 11:03:32;;;;;;;;;;;;;;;25.36;40.34;100106.38;4966488;28;7023;-74
2023/09/19 11:06:16;;;;;;;;;;;;;;;25.36;40.65;100118.66;4965847;28;7006;-73
2023/09/19 11:08:57;;;;;;;;;;;;;;;25.35;40.04;100122.16;4978189;28;7118;-74
2023/09/19 11:11:39;;;;;;;;;;;;;;;25.45;40.38;100122.84;4980634;28;6820;-74
2023/09/19 11:14:15;;;;;;;;;;;;;;;25.68;40.42;100114.59;4965721;28;7313;-74
2023/09/19 11:17:15;;;;;;;;;;;;;;;25.98;40.10;100121.88;4983111;28;6796;-74
2023/09/19 11:22:53;;;;;;;;;;;;;;;26.88;39.11;100106.81;4982957;28;6808;-74
2023/09/19 11:25:31;;;;;;;;;;;;;;;27.28;38.77;100121.56;4981088;28;7194;-74
2023/09/19 11:28:06;;;;;;;;;;;;;;;27.62;38.03;100109.31;4981459;28;6876;-74
2023/09/19 11:30:36;;;;;;;;;;;;;;;27.91;37.37;100112.00;4984121;28;7060;-74
2023/09/19 11:33:28;;;;;;;;;;;;;;;28.25;37.18;100106.66;4984121;28;7285;-74
2023/09/19 11:36:09;;;;;;;;;;;;;;;28.51;37.30;100110.25;4982911;28;7248;-75
2023/09/19 11:38:47;;;;;;;;;;;;;;;28.77;36.28;100107.69;4983439;28;7067;-75
2023/09/19 11:41:31;;;;;;;;;;;;;;;28.92;36.28;100099.31;4985808;28;6824;-75
2023/09/19 11:44:05;;;;;;;;;;;;;;;29.03;35.59;100098.09;4985304;28;6819;-75
2023/09/19 11:46:33;;;;;;;;;;;;;;;29.14;34.74;100098.56;4987098;28;7093;-76
2023/09/19 11:49:19;;;;;;;;;;;;;;;29.24;35.24;100096.50;5002632;28;6931;-76
2023/09/19 11:51:45;;;;;;;;;;;;;;;29.42;34.89;100089.69;4970308;28;6868;-76
2023/09/19 11:54:18;;;;;;;;;;;;;;;29.68;35.04;100087.94;4987038;28;6815;-76
2023/09/19 11:56:55;;;;;;;;;;;;;;;30.07;33.91;100073.28;4984802;28;6831;-75
2023/09/19 11:59:27;;;;;;;;;;;;;;;30.44;33.83;100077.13;4984472;28;7258;-75
2023/09/19 12:01:57;;;;;;;;;;;;;;;30.67;33.29;100077.16;4967930;28;6995;-76
2023/09/19 12:04:41;;;;;;;;;;;;;;;30.67;32.99;100079.78;4979123;28;6804;-77
2023/09/19 12:07:10;;;;;;;;;;;;;;;30.59;33.01;100082.72;4984416;28;6846;-75
2023/09/19 12:09:38;;;;;;;;;;;;;;;30.45;32.95;100075.34;4965349;28;6994;-76
2023/09/19 12:12:04;;;;;;;;;;;;;;;30.44;32.63;100073.63;4986485;28;6807;-76
2023/09/19 12:14:30;;;;;;;;;;;;;;;30.53;32.13;100067.09;4980692;28;6999;-75
2023/09/19 12:16:58;;;;;;;;;;;;;;;30.61;32.62;100065.88;4983706;28;7236;-76
2023/09/19 12:19:25;;;;;;;;;;;;;;;30.55;31.77;100071.41;4986204;28;7205;-76
2023/09/19 12:22:04;;;;;;;;;;;;;;;30.27;31.45;100067.22;4997202;28;8759;-76
2023/09/19 12:24:29;;;;;;;;;;;;;;;29.73;32.39;100072.75;4979770;28;7023;-75
2023/09/19 12:27:04;;;;;;;;;;;;;;;29.01;32.40;100070.91;4984433;28;7232;-75
2023/09/19 12:29:31;;;;;;;;;;;;;;;28.27;34.11;100061.81;4968564;28;7027;-75
2023/09/19 12:32:03;;;;;;;;;;;;;;;27.66;34.40;100060.94;4985213;28;6804;-76
2023/09/19 12:34:35;;;;;;;;;;;;;;;27.16;34.48;100064.03;4967997;28;6993;-77
2023/09/19 12:37:12;;;;;;;;;;;;;;;26.72;34.96;100064.25;4983138;28;6812;-77
2023/09/19 12:39:44;;;;;;;;;;;;;;;26.38;35.51;100052.78;4978869;28;8106;-77
2023/09/19 12:42:10;;;;;;;;;;;;;;;26.13;35.62;100050.66;4964029;28;7290;-75
2023/09/19 12:44:38;;;;;;;;;;;;;;;25.92;35.78;100054.59;4978271;28;7075;-76
2023/09/19 12:47:11;;;;;;;;;;;;;;;25.76;36.20;100054.06;4961774;28;7249;-76
2023/09/19 12:50:07;;;;;;;;;;;;;;;25.71;36.69;100045.44;4995176;28;6792;-75
2023/09/19 12:52:39;;;;;;;;;;;;;;;25.71;37.06;100040.19;4981615;28;6968;-75
2023/09/19 12:55:07;;;;;;;;;;;;;;;25.70;37.08;100033.22;4983570;28;6815;-76
2023/09/19 12:57:34;;;;;;;;;;;;;;;25.73;36.76;100038.41;4985078;28;6888;-76
2023/09/19 13:00:05;;;;;;;;;;;;;;;25.74;36.99;100027.88;4967389;28;8619;-76
2023/09/19 13:02:32;;;;;;;;;;;;;;;25.79;37.53;100033.03;4981848;28;7267;-75
2023/09/19 13:05:04;;;;;;;;;;;;;;;25.87;37.41;100030.22;4982562;28;7334;-76
2023/09/19 13:07:49;;;;;;;;;;;;;;;25.90;37.05;100040.66;4969121;28;6873;-77
2023/09/19 13:10:16;;;;;;;;;;;;;;;26.04;36.77;100045.59;4969515;28;7023;-76
2023/09/19 13:12:46;;;;;;;;;;;;;;;26.25;36.85;100046.06;4968671;28;7015;-75
2023/09/19 13:15:20;;;;;;;;;;;;;;;26.45;36.44;100049.06;4974181;28;6981;-76